Time;durP1;ratioP1;P1;durP2;ratioP2;P2;SDS_P1;SDS_P2;PMS_P1;PMS_P2;Temp;Humidity;BMP_temperature;BMP_pressure;BME280_temperature;BME280_humidity;BME280_pressure;Samples;Min_cycle;Max_cycle;Signal;HPM_P1;HPM_P2
2022/10/28 00:00:15;;;;;;;;;;;;;;;21.45;30.67;99204.47;5071210;28;825;-80
2022/10/28 00:06:20;;;;;;;;;;;;;;;21.26;30.89;99200.94;5054503;28;620;-79
2022/10/28 00:08:45;;;;;;;;;;;;;;;21.04;30.99;99202.28;5075720;28;1910;-80
2022/10/28 00:11:12;;;;;;;;;;;;;;;21.06;31.24;99202.66;5042141;28;1145;-80
2022/10/28 00:13:37;;;;;;;;;;;;;;;20.99;31.07;99209.19;5075301;28;805;-80
2022/10/28 00:16:06;;;;;;;;;;;;;;;21.25;31.43;99198.53;5058368;28;743;-80
2022/10/28 00:18:32;;;;;;;;;;;;;;;21.50;30.54;99198.34;5058404;28;903;-80
2022/10/28 00:21:01;;;;;;;;;;;;;;;21.35;31.05;99191.19;5058393;28;739;-80
2022/10/28 00:23:26;;;;;;;;;;;;;;;21.35;30.91;99196.84;5077788;28;913;-80
2022/10/28 00:25:52;;;;;;;;;;;;;;;21.23;30.76;99193.25;5060590;28;934;-79
2022/10/28 00:28:17;;;;;;;;;;;;;;;21.23;30.77;99201.75;5060876;28;1965;-80
2022/10/28 00:30:43;;;;;;;;;;;;;;;21.19;31.01;99195.31;5078316;28;1291;-79
2022/10/28 00:33:08;;;;;;;;;;;;;;;21.00;31.34;99199.47;5061687;28;1223;-80
2022/10/28 00:35:34;;;;;;;;;;;;;;;20.84;31.64;99195.50;5061356;28;834;-80
2022/10/28 00:37:59;;;;;;;;;;;;;;;21.49;31.23;99193.94;5045231;28;1153;-80
2022/10/28 00:40:24;;;;;;;;;;;;;;;21.49;30.78;99191.09;5061432;28;1127;-80
2022/10/28 00:42:50;;;;;;;;;;;;;;;21.23;30.88;99184.75;5078241;28;893;-80
2022/10/28 00:48:51;;;;;;;;;;;;;;;21.07;31.16;99192.94;5078196;28;1991;-79
2022/10/28 00:51:17;;;;;;;;;;;;;;;21.03;31.08;99186.50;5057648;28;1301;-80
2022/10/28 00:53:42;;;;;;;;;;;;;;;21.42;31.12;99185.50;5041193;28;824;-80
2022/10/28 00:56:08;;;;;;;;;;;;;;;21.55;30.78;99183.75;5024902;28;1234;-80
2022/10/28 00:58:33;;;;;;;;;;;;;;;21.14;31.06;99175.13;5057731;28;846;-80
2022/10/28 01:00:58;;;;;;;;;;;;;;;21.17;30.93;99180.75;5041076;28;848;-80
2022/10/28 01:03:24;;;;;;;;;;;;;;;21.31;30.53;99179.91;5041374;28;782;-80
2022/10/28 01:05:50;;;;;;;;;;;;;;;21.08;30.99;99180.41;5057513;28;837;-79
2022/10/28 01:12:23;;;;;;;;;;;;;;;21.40;31.19;99182.25;5057565;28;905;-80
2022/10/28 01:14:59;;;;;;;;;;;;;;;21.57;30.78;99181.34;5037570;28;929;-79
2022/10/28 01:17:28;;;;;;;;;;;;;;;21.21;31.12;99175.88;5047734;28;939;-80
2022/10/28 01:19:57;;;;;;;;;;;;;;;21.30;31.04;99173.44;5033405;28;1251;-80
2022/10/28 01:22:41;;;;;;;;;;;;;;;21.19;31.24;99184.00;5017606;28;827;-80
2022/10/28 01:25:29;;;;;;;;;;;;;;;21.13;31.16;99174.31;5018125;28;918;-79
2022/10/28 01:28:21;;;;;;;;;;;;;;;20.99;31.69;99175.22;5037024;28;1082;-80
2022/10/28 01:31:00;;;;;;;;;;;;;;;21.03;31.55;99180.84;5017282;28;951;-80
2022/10/28 01:33:27;;;;;;;;;;;;;;;20.96;31.92;99181.69;4978016;28;1300;-80
2022/10/28 01:35:56;;;;;;;;;;;;;;;21.17;31.57;99186.41;4958567;29;953;-80
2022/10/28 01:38:40;;;;;;;;;;;;;;;21.36;31.74;99182.28;4974800;28;983;-79
2022/10/28 01:41:07;;;;;;;;;;;;;;;21.43;31.90;99179.41;4959022;28;884;-80
2022/10/28 01:43:39;;;;;;;;;;;;;;;21.59;31.23;99178.88;4958659;28;886;-79
2022/10/28 01:46:10;;;;;;;;;;;;;;;21.29;31.76;99177.44;4974654;28;1033;-80
2022/10/28 01:48:38;;;;;;;;;;;;;;;21.24;31.43;99179.91;4977794;28;1914;-80
2022/10/28 01:51:06;;;;;;;;;;;;;;;21.14;31.63;99180.78;4962389;28;1001;-80
2022/10/28 01:53:33;;;;;;;;;;;;;;;20.91;32.11;99175.66;4961718;28;972;-80
2022/10/28 01:56:01;;;;;;;;;;;;;;;21.05;31.75;99179.22;4962017;28;819;-80
2022/10/28 01:58:28;;;;;;;;;;;;;;;21.46;31.79;99174.94;4945651;28;1132;-80
2022/10/28 02:00:54;;;;;;;;;;;;;;;21.60;31.55;99163.50;4961535;28;908;-80
2022/10/28 02:03:19;;;;;;;;;;;;;;;21.24;31.57;99169.41;4944735;28;1267;-80
2022/10/28 02:05:45;;;;;;;;;;;;;;;21.44;31.42;99175.34;4958192;29;947;-80
2022/10/28 02:08:11;;;;;;;;;;;;;;;21.23;31.56;99172.63;5018473;28;1971;-80
2022/10/28 02:10:36;;;;;;;;;;;;;;;21.33;31.32;99172.59;5033543;28;1313;-80
2022/10/28 02:13:02;;;;;;;;;;;;;;;21.06;31.65;99174.38;5017153;28;1236;-79
2022/10/28 02:15:31;;;;;;;;;;;;;;;20.96;32.10;99169.56;5033043;28;787;-80
2022/10/28 02:17:56;;;;;;;;;;;;;;;21.00;32.02;99168.34;5017003;28;807;-80
2022/10/28 02:20:32;;;;;;;;;;;;;;;21.18;31.92;99173.88;5080186;28;794;-79
2022/10/28 02:23:02;;;;;;;;;;;;;;;21.41;31.73;99178.22;5075999;28;924;-79
2022/10/28 02:25:56;;;;;;;;;;;;;;;21.51;31.49;99171.69;5042672;28;1326;-80
2022/10/28 02:28:41;;;;;;;;;;;;;;;21.19;31.89;99181.16;5019473;28;1902;-80
2022/10/28 02:31:27;;;;;;;;;;;;;;;21.17;31.80;99169.44;5019561;28;762;-80
2022/10/28 02:33:53;;;;;;;;;;;;;;;21.02;31.83;99176.41;5036012;28;1180;-80
2022/10/28 02:36:19;;;;;;;;;;;;;;;20.94;32.25;99172.03;5019734;28;1143;-80
2022/10/28 02:38:45;;;;;;;;;;;;;;;20.96;32.09;99176.03;5019228;28;924;-80
2022/10/28 02:41:23;;;;;;;;;;;;;;;20.96;32.05;99169.56;5019281;28;752;-80
2022/10/28 02:43:49;;;;;;;;;;;;;;;20.98;32.24;99167.13;5035921;28;1251;-80
2022/10/28 02:46:14;;;;;;;;;;;;;;;21.31;32.32;99168.59;5019329;28;1155;-79
2022/10/28 02:51:59;;;;;;;;;;;;;;;21.26;31.99;99172.63;5035561;28;1084;-80
2022/10/28 02:54:30;;;;;;;;;;;;;;;21.04;32.10;99182.47;4991859;28;871;-80
2022/10/28 02:56:57;;;;;;;;;;;;;;;21.23;31.53;99176.28;4996705;28;873;-80
2022/10/28 03:02:57;;;;;;;;;;;;;;;20.95;32.44;99174.44;4996391;28;645;-80
2022/10/28 03:05:22;;;;;;;;;;;;;;;20.97;32.18;99176.84;5070063;28;931;-80
2022/10/28 03:07:48;;;;;;;;;;;;;;;20.98;32.21;99178.44;5055278;28;893;-80
2022/10/28 03:10:13;;;;;;;;;;;;;;;21.27;32.33;99179.88;5055380;28;1906;-79
2022/10/28 03:12:39;;;;;;;;;;;;;;;21.37;32.49;99172.56;5055205;28;836;-80
2022/10/28 03:15:05;;;;;;;;;;;;;;;21.31;32.32;99180.72;5038582;28;1315;-81
2022/10/28 03:17:30;;;;;;;;;;;;;;;21.31;32.01;99168.59;5055083;28;985;-80
2022/10/28 03:19:56;;;;;;;;;;;;;;;21.17;32.34;99172.28;5055442;28;830;-80
2022/10/28 03:22:21;;;;;;;;;;;;;;;21.23;31.87;99170.59;5055161;28;1162;-80
2022/10/28 03:24:47;;;;;;;;;;;;;;;21.04;32.09;99182.47;5038580;28;1346;-80
2022/10/28 03:27:12;;;;;;;;;;;;;;;21.05;32.19;99178.41;5038813;28;1150;-80
2022/10/28 03:33:12;;;;;;;;;;;;;;;21.11;32.09;99175.97;5055221;28;851;-80
2022/10/28 03:35:37;;;;;;;;;;;;;;;20.96;32.52;99180.88;5038315;28;767;-80
2022/10/28 03:38:03;;;;;;;;;;;;;;;21.02;32.30;99184.91;5055075;28;921;-80
2022/10/28 03:40:28;;;;;;;;;;;;;;;21.26;32.46;99181.13;5089520;28;727;-80
2022/10/28 03:42:53;;;;;;;;;;;;;;;21.55;32.25;99184.59;5056473;28;751;-80
2022/10/28 03:45:19;;;;;;;;;;;;;;;21.73;31.64;99178.78;5056752;28;854;-80
2022/10/28 03:47:44;;;;;;;;;;;;;;;21.15;32.65;99177.56;5072507;28;1195;-80
2022/10/28 03:50:10;;;;;;;;;;;;;;;21.13;32.44;99185.63;5055983;28;1971;-80
2022/10/28 03:52:35;;;;;;;;;;;;;;;21.07;32.40;99184.47;5056062;28;1114;-80
2022/10/28 03:55:01;;;;;;;;;;;;;;;21.17;32.14;99175.09;5055825;28;1232;-80
2022/10/28 03:57:28;;;;;;;;;;;;;;;21.28;32.06;99173.00;5055972;28;1114;-80
2022/10/28 03:59:54;;;;;;;;;;;;;;;21.54;32.23;99179.31;5072933;28;1305;-80
2022/10/28 04:02:19;;;;;;;;;;;;;;;21.53;32.21;99175.69;5072322;28;1122;-80
2022/10/28 04:08:20;;;;;;;;;;;;;;;21.51;31.90;99183.00;5056711;28;1913;-80
2022/10/28 04:10:46;;;;;;;;;;;;;;;21.45;32.25;99178.97;5054450;28;1105;-80
2022/10/28 04:13:11;;;;;;;;;;;;;;;21.19;32.43;99184.00;5037735;28;1232;-80
2022/10/28 04:15:38;;;;;;;;;;;;;;;21.18;32.27;99187.22;4982223;28;1244;-80
2022/10/28 04:18:03;;;;;;;;;;;;;;;21.20;32.36;99185.59;4998268;28;852;-80
2022/10/28 04:20:29;;;;;;;;;;;;;;;21.08;32.36;99183.25;5014698;28;870;-80
2022/10/28 04:22:54;;;;;;;;;;;;;;;21.12;32.23;99184.03;4982663;28;1167;-80
2022/10/28 04:28:55;;;;;;;;;;;;;;;21.13;32.51;99182.81;5015027;28;1975;-80
2022/10/28 04:31:20;;;;;;;;;;;;;;;21.17;32.18;99192.09;5014614;28;1195;-80
2022/10/28 04:33:46;;;;;;;;;;;;;;;21.01;32.65;99183.28;4998380;28;847;-80
2022/10/28 04:36:11;;;;;;;;;;;;;;;21.05;32.37;99195.41;4998446;28;858;-80
2022/10/28 04:38:37;;;;;;;;;;;;;;;21.13;32.06;99188.47;4997532;28;782;-80
2022/10/28 04:41:02;;;;;;;;;;;;;;;21.29;33.26;99188.75;5001854;28;1151;-80
2022/10/28 04:43:28;;;;;;;;;;;;;;;21.43;32.88;99189.94;5017355;28;1169;-80
2022/10/28 04:45:53;;;;;;;;;;;;;;;21.27;32.58;99188.38;5038197;28;889;-80
2022/10/28 04:48:19;;;;;;;;;;;;;;;21.23;32.55;99190.41;5054060;28;1985;-80
2022/10/28 04:50:44;;;;;;;;;;;;;;;21.31;32.32;99188.41;5088042;28;782;-80
2022/10/28 04:53:10;;;;;;;;;;;;;;;21.14;32.29;99195.75;5037577;28;1100;-80
2022/10/28 04:55:35;;;;;;;;;;;;;;;21.18;32.50;99193.69;5074458;28;1094;-80
2022/10/28 04:58:01;;;;;;;;;;;;;;;21.09;32.41;99190.53;5074504;28;857;-80
2022/10/28 05:00:27;;;;;;;;;;;;;;;21.06;32.69;99188.50;5074402;28;1165;-80
2022/10/28 05:02:52;;;;;;;;;;;;;;;21.33;33.31;99198.06;5078554;28;1229;-80
2022/10/28 05:05:18;;;;;;;;;;;;;;;21.52;32.58;99201.59;5068631;28;1205;-80
2022/10/28 05:07:44;;;;;;;;;;;;;;;21.52;32.61;99207.25;5065951;28;1229;-80
2022/10/28 05:10:11;;;;;;;;;;;;;;;21.40;32.69;99199.25;5058567;28;1918;-79
2022/10/28 05:12:37;;;;;;;;;;;;;;;21.26;32.52;99203.75;5059587;28;751;-80
2022/10/28 05:15:02;;;;;;;;;;;;;;;21.23;32.38;99206.59;5041478;28;712;-80
2022/10/28 05:17:28;;;;;;;;;;;;;;;21.19;32.29;99206.66;5058210;28;723;-80
2022/10/28 05:19:53;;;;;;;;;;;;;;;21.17;32.55;99220.38;5059309;28;803;-80
2022/10/28 05:22:19;;;;;;;;;;;;;;;21.35;32.23;99213.84;5040220;28;1126;-79
2022/10/28 05:24:44;;;;;;;;;;;;;;;21.04;32.57;99216.44;5040852;28;1242;-79
2022/10/28 05:27:11;;;;;;;;;;;;;;;21.13;32.86;99213.94;5040701;28;952;-79
2022/10/28 05:29:36;;;;;;;;;;;;;;;21.28;33.43;99215.47;5024050;28;1993;-79
2022/10/28 05:32:02;;;;;;;;;;;;;;;21.41;33.01;99223.53;5040631;28;1182;-80
2022/10/28 05:34:27;;;;;;;;;;;;;;;21.37;32.55;99222.75;5057023;28;885;-80
2022/10/28 05:36:53;;;;;;;;;;;;;;;21.43;32.34;99221.06;5040555;28;739;-80
2022/10/28 05:39:18;;;;;;;;;;;;;;;21.32;32.21;99230.44;5040371;28;740;-79
2022/10/28 05:41:43;;;;;;;;;;;;;;;21.27;32.55;99235.69;5040166;28;985;-79
2022/10/28 05:44:09;;;;;;;;;;;;;;;21.12;32.46;99240.63;5040345;28;1103;-79
2022/10/28 05:46:34;;;;;;;;;;;;;;;21.18;32.36;99233.31;5039816;28;1166;-79
2022/10/28 05:49:00;;;;;;;;;;;;;;;21.31;33.27;99237.31;5056579;28;1913;-79
2022/10/28 05:51:27;;;;;;;;;;;;;;;21.49;33.00;99237.19;5040196;28;814;-79
2022/10/28 05:53:53;;;;;;;;;;;;;;;21.61;32.53;99238.75;5058069;28;840;-80
2022/10/28 05:56:19;;;;;;;;;;;;;;;21.38;32.61;99235.66;5059276;28;853;-79
2022/10/28 05:58:44;;;;;;;;;;;;;;;21.38;32.34;99238.50;5057956;28;711;-79
2022/10/28 06:01:10;;;;;;;;;;;;;;;21.32;32.60;99238.94;5041023;28;700;-79
2022/10/28 06:03:35;;;;;;;;;;;;;;;21.08;32.84;99234.19;5036448;28;881;-79
2022/10/28 06:06:00;;;;;;;;;;;;;;;21.08;32.96;99245.50;5035801;28;967;-79
2022/10/28 06:08:26;;;;;;;;;;;;;;;21.09;32.54;99247.13;5036256;28;1910;-79
2022/10/28 06:10:52;;;;;;;;;;;;;;;21.17;32.44;99248.69;5016960;28;1262;-79
2022/10/28 06:13:17;;;;;;;;;;;;;;;21.26;32.32;99251.88;5016555;28;948;-79
2022/10/28 06:15:43;;;;;;;;;;;;;;;21.41;32.04;99251.84;5016575;28;937;-79
2022/10/28 06:18:08;;;;;;;;;;;;;;;21.24;32.40;99243.00;5016597;28;1120;-79
2022/10/28 06:20:34;;;;;;;;;;;;;;;21.43;32.82;99238.06;5016538;28;1389;-79
2022/10/28 06:22:59;;;;;;;;;;;;;;;21.41;33.70;99240.50;5016412;28;882;-79
2022/10/28 06:25:25;;;;;;;;;;;;;;;21.55;33.11;99238.41;5012850;28;1245;-79
2022/10/28 06:27:57;;;;;;;;;;;;;;;21.33;33.24;99246.19;5012892;28;786;-79
2022/10/28 06:30:22;;;;;;;;;;;;;;;21.19;33.09;99243.44;5013173;28;1915;-79
2022/10/28 06:32:48;;;;;;;;;;;;;;;21.14;32.94;99245.88;4996494;28;873;-79
2022/10/28 06:35:13;;;;;;;;;;;;;;;21.25;32.90;99253.09;5026817;28;829;-79
2022/10/28 06:37:39;;;;;;;;;;;;;;;21.12;32.79;99251.94;5035881;28;822;-80
2022/10/28 06:40:04;;;;;;;;;;;;;;;21.26;32.50;99266.03;5036268;28;837;-79
2022/10/28 06:42:30;;;;;;;;;;;;;;;21.27;32.75;99252.69;5003000;28;906;-79
2022/10/28 06:44:55;;;;;;;;;;;;;;;21.23;32.63;99261.19;5035826;28;767;-79
2022/10/28 06:47:21;;;;;;;;;;;;;;;21.35;32.27;99261.97;5038043;28;1280;-79
2022/10/28 06:49:46;;;;;;;;;;;;;;;21.19;32.75;99262.41;5038867;28;1910;-79
2022/10/28 06:52:12;;;;;;;;;;;;;;;21.47;33.06;99261.50;5038947;28;819;-79
2022/10/28 06:54:37;;;;;;;;;;;;;;;21.51;33.59;99257.44;5055829;28;778;-79
2022/10/28 06:57:03;;;;;;;;;;;;;;;21.63;33.01;99258.97;5039211;28;821;-79
2022/10/28 06:59:28;;;;;;;;;;;;;;;21.35;33.10;99259.13;5039019;28;1110;-79
2022/10/28 07:01:54;;;;;;;;;;;;;;;21.32;32.97;99261.59;5019018;28;1080;-79
2022/10/28 07:04:19;;;;;;;;;;;;;;;21.22;33.21;99261.59;5052206;28;1255;-79
2022/10/28 07:06:44;;;;;;;;;;;;;;;21.24;32.76;99268.50;5035140;28;806;-79
2022/10/28 07:09:12;;;;;;;;;;;;;;;21.20;32.95;99264.84;5018795;28;1957;-79
2022/10/28 07:11:37;;;;;;;;;;;;;;;21.32;32.59;99261.59;5052182;28;943;-79
2022/10/28 07:14:03;;;;;;;;;;;;;;;21.19;32.81;99263.25;5051837;28;719;-79
2022/10/28 07:16:28;;;;;;;;;;;;;;;20.93;33.23;99260.91;5034294;28;857;-79
2022/10/28 07:18:54;;;;;;;;;;;;;;;21.39;32.94;99265.59;5035275;28;731;-79
2022/10/28 07:21:23;;;;;;;;;;;;;;;21.23;33.99;99266.03;5051780;28;936;-79
2022/10/28 07:23:48;;;;;;;;;;;;;;;21.43;33.62;99260.72;5051317;28;779;-79
2022/10/28 07:26:14;;;;;;;;;;;;;;;21.30;33.17;99258.38;4992513;28;1238;-79
2022/10/28 07:28:41;;;;;;;;;;;;;;;21.12;33.40;99260.44;4976123;28;1906;-79
2022/10/28 07:31:07;;;;;;;;;;;;;;;21.17;33.11;99260.00;4976192;28;943;-79
2022/10/28 07:33:32;;;;;;;;;;;;;;;21.37;32.70;99256.72;5022888;28;787;-79
2022/10/28 07:35:58;;;;;;;;;;;;;;;21.33;32.57;99257.53;4998733;28;1432;-79
2022/10/28 07:38:23;;;;;;;;;;;;;;;21.23;32.81;99258.34;4998478;28;1338;-79
2022/10/28 07:40:48;;;;;;;;;;;;;;;21.13;33.07;99259.22;5015027;28;773;-79
2022/10/28 07:43:14;;;;;;;;;;;;;;;21.12;32.96;99260.44;4998785;28;851;-79
2022/10/28 07:45:40;;;;;;;;;;;;;;;21.09;32.87;99258.44;4998614;28;919;-79
2022/10/28 07:48:05;;;;;;;;;;;;;;;21.16;32.75;99275.38;4998432;28;1224;-79
2022/10/28 07:50:31;;;;;;;;;;;;;;;21.04;32.77;99270.19;4998435;28;1974;-79
2022/10/28 07:52:56;;;;;;;;;;;;;;;21.16;32.83;99268.91;4998865;28;1337;-79
2022/10/28 07:55:21;;;;;;;;;;;;;;;21.20;32.40;99273.34;5015286;28;1197;-79
2022/10/28 07:57:47;;;;;;;;;;;;;;;21.21;32.35;99265.66;5047679;28;1134;-79
2022/10/28 08:00:13;;;;;;;;;;;;;;;21.29;32.11;99268.03;5058456;28;1278;-79
2022/10/28 08:02:38;;;;;;;;;;;;;;;21.26;33.23;99268.88;5058161;28;1214;-79
2022/10/28 08:05:04;;;;;;;;;;;;;;;21.62;33.41;99268.69;5024765;28;1170;-80
2022/10/28 08:07:30;;;;;;;;;;;;;;;21.61;33.19;99269.91;5024969;28;1107;-79
2022/10/28 08:09:56;;;;;;;;;;;;;;;21.43;33.05;99264.34;5058089;28;1921;-79
2022/10/28 08:12:21;;;;;;;;;;;;;;;21.37;33.17;99262.38;5057633;28;755;-79
2022/10/28 08:14:47;;;;;;;;;;;;;;;21.44;32.71;99265.16;5041101;28;882;-79
2022/10/28 08:17:12;;;;;;;;;;;;;;;21.32;32.51;99261.59;5074328;28;727;-79
2022/10/28 08:19:38;;;;;;;;;;;;;;;21.30;32.62;99269.69;5057800;28;1118;-79
2022/10/28 08:22:03;;;;;;;;;;;;;;;21.39;32.40;99266.38;5074641;28;821;-79
2022/10/28 08:24:29;;;;;;;;;;;;;;;21.35;32.49;99267.63;5041015;28;762;-79
2022/10/28 08:26:54;;;;;;;;;;;;;;;21.04;32.90;99270.19;5038301;28;1103;-79
2022/10/28 08:29:19;;;;;;;;;;;;;;;20.96;33.29;99275.06;5042444;28;1963;-79
2022/10/28 08:31:45;;;;;;;;;;;;;;;21.35;32.37;99271.28;5059252;28;727;-79
2022/10/28 08:34:10;;;;;;;;;;;;;;;21.20;32.92;99262.03;5059023;28;759;-79
2022/10/28 08:36:36;;;;;;;;;;;;;;;21.02;33.19;99275.44;5038307;28;855;-79
2022/10/28 08:39:01;;;;;;;;;;;;;;;21.02;32.84;99276.25;5038188;28;949;-79
2022/10/28 08:41:27;;;;;;;;;;;;;;;21.25;32.53;99277.78;5021656;28;962;-79
2022/10/28 08:44:10;;;;;;;;;;;;;;;21.15;32.73;99273.78;5038001;28;771;-79
2022/10/28 08:46:36;;;;;;;;;;;;;;;21.31;32.32;99279.78;5038015;28;1055;-79
2022/10/28 08:49:02;;;;;;;;;;;;;;;21.16;32.52;99281.03;5037906;28;1914;-79
2022/10/28 08:51:53;;;;;;;;;;;;;;;21.13;32.26;99272.56;5054442;28;762;-79
2022/10/28 08:54:23;;;;;;;;;;;;;;;21.12;32.48;99273.78;4978912;28;1154;-79
2022/10/28 08:56:48;;;;;;;;;;;;;;;21.26;32.20;99283.03;4963248;28;1023;-79
2022/10/28 08:59:16;;;;;;;;;;;;;;;21.15;32.60;99279.44;4978725;28;935;-79
2022/10/28 09:01:46;;;;;;;;;;;;;;;21.35;33.16;99276.13;4963082;28;872;-79
2022/10/28 09:04:32;;;;;;;;;;;;;;;21.45;33.86;99281.75;4944807;28;1105;-79
2022/10/28 09:06:57;;;;;;;;;;;;;;;21.50;33.58;99277.66;4977479;28;1070;-79
2022/10/28 09:09:22;;;;;;;;;;;;;;;21.31;33.57;99276.97;4977036;28;1962;-79
2022/10/28 09:11:48;;;;;;;;;;;;;;;21.28;33.09;99274.91;4961316;28;1302;-79
2022/10/28 09:14:32;;;;;;;;;;;;;;;21.35;32.91;99274.13;4977063;28;1244;-80
2022/10/28 09:17:23;;;;;;;;;;;;;;;21.42;32.59;99264.78;4977803;28;1421;-79
2022/10/28 09:19:49;;;;;;;;;;;;;;;21.13;33.29;99269.72;4940226;29;1085;-80
2022/10/28 09:22:29;;;;;;;;;;;;;;;21.43;32.79;99263.53;4939182;29;1005;-79
2022/10/28 09:24:57;;;;;;;;;;;;;;;21.19;32.84;99263.25;4901873;29;977;-79
2022/10/28 09:27:41;;;;;;;;;;;;;;;21.31;32.55;99262.81;4900999;29;949;-80
2022/10/28 09:30:18;;;;;;;;;;;;;;;21.21;33.08;99249.47;4894057;29;1907;-79
2022/10/28 09:33:05;;;;;;;;;;;;;;;21.32;32.63;99255.91;4902287;29;927;-79
2022/10/28 09:35:32;;;;;;;;;;;;;;;21.06;33.22;99253.59;4901778;29;900;-79
2022/10/28 09:38:16;;;;;;;;;;;;;;;21.21;32.84;99249.47;4900480;29;1128;-81
2022/10/28 09:40:43;;;;;;;;;;;;;;;21.30;32.40;99247.03;4900208;29;809;-81
2022/10/28 09:43:10;;;;;;;;;;;;;;;21.22;32.77;99239.75;4925773;29;1173;-81
2022/10/28 09:45:36;;;;;;;;;;;;;;;21.15;32.42;99242.66;4954748;28;795;-81
2022/10/28 09:48:04;;;;;;;;;;;;;;;20.97;32.75;99251.19;4954269;29;1232;-80
2022/10/28 09:50:30;;;;;;;;;;;;;;;21.09;32.79;99235.81;4954616;29;1973;-81
2022/10/28 09:53:02;;;;;;;;;;;;;;;21.40;32.96;99228.38;4939140;29;1262;-81
2022/10/28 09:55:28;;;;;;;;;;;;;;;21.52;33.33;99225.06;4967574;28;1266;-81
2022/10/28 09:57:53;;;;;;;;;;;;;;;21.61;33.67;99227.44;5066499;28;1244;-78
2022/10/28 10:00:19;;;;;;;;;;;;;;;20.99;34.34;99202.72;5065079;28;1209;-78
2022/10/28 10:02:44;;;;;;;;;;;;;;;21.38;33.45;99224.34;5068178;28;1248;-78
2022/10/28 10:05:14;;;;;;;;;;;;;;;21.30;33.38;99230.06;5065863;28;1208;-78
2022/10/28 10:07:43;;;;;;;;;;;;;;;21.12;33.60;99229.31;5048391;28;1245;-78
2022/10/28 10:10:13;;;;;;;;;;;;;;;21.07;33.52;99222.06;5066451;28;1983;-80
2022/10/28 10:12:38;;;;;;;;;;;;;;;21.23;33.34;99217.94;5064919;28;1193;-80
2022/10/28 10:15:04;;;;;;;;;;;;;;;21.25;32.99;99221.97;5062704;28;1204;-79
2022/10/28 10:17:38;;;;;;;;;;;;;;;21.04;33.23;99219.25;5048434;28;1217;-79
2022/10/28 10:20:08;;;;;;;;;;;;;;;20.98;33.53;99221.69;5062290;28;1225;-79
2022/10/28 10:22:40;;;;;;;;;;;;;;;21.11;33.15;99205.06;5067860;28;1255;-79
2022/10/28 10:25:17;;;;;;;;;;;;;;;21.22;32.82;99202.97;5067485;28;1260;-80
2022/10/28 10:27:53;;;;;;;;;;;;;;;21.02;33.21;99213.19;5065662;28;1213;-82
2022/10/28 10:30:23;;;;;;;;;;;;;;;21.10;32.65;99206.28;5065844;28;1987;-80
2022/10/28 10:32:48;;;;;;;;;;;;;;;21.30;32.66;99195.28;5064799;28;1205;-80
2022/10/28 10:35:19;;;;;;;;;;;;;;;21.32;33.75;99199.28;5039748;28;1228;-80
2022/10/28 10:37:44;;;;;;;;;;;;;;;21.39;33.84;99198.44;5039799;28;1187;-80
2022/10/28 10:40:18;;;;;;;;;;;;;;;21.40;33.27;99199.25;5056124;28;715;-79
2022/10/28 10:42:44;;;;;;;;;;;;;;;21.31;33.18;99197.69;5065427;28;1089;-80
2022/10/28 10:45:39;;;;;;;;;;;;;;;21.25;33.23;99202.16;5067701;28;1157;-80
2022/10/28 10:48:10;;;;;;;;;;;;;;;21.37;33.03;99186.72;5050091;28;1260;-80
2022/10/28 10:50:36;;;;;;;;;;;;;;;21.31;32.99;99192.03;5050370;28;1905;-80
2022/10/28 10:53:02;;;;;;;;;;;;;;;21.31;32.98;99192.03;5033447;28;1126;-81
2022/10/28 10:55:31;;;;;;;;;;;;;;;21.31;32.71;99194.88;5034365;28;1274;-79
2022/10/28 10:57:57;;;;;;;;;;;;;;;21.23;32.74;99196.09;5034098;28;1214;-79
2022/10/28 11:00:23;;;;;;;;;;;;;;;21.23;32.58;99193.25;5033879;28;1242;-80
2022/10/28 11:02:48;;;;;;;;;;;;;;;21.22;32.98;99205.81;5017735;28;1333;-80
2022/10/28 11:05:18;;;;;;;;;;;;;;;21.10;32.92;99203.47;5033938;28;1320;-80
2022/10/28 11:07:44;;;;;;;;;;;;;;;21.26;32.80;99195.28;5034004;28;1218;-82
2022/10/28 11:10:28;;;;;;;;;;;;;;;21.13;32.83;99196.94;5034441;28;1921;-81
2022/10/28 11:12:57;;;;;;;;;;;;;;;21.19;32.51;99194.50;5034703;28;1142;-81
2022/10/28 11:15:27;;;;;;;;;;;;;;;21.12;32.53;99189.69;5017847;28;751;-81
2022/10/28 11:17:53;;;;;;;;;;;;;;;21.15;32.42;99188.88;5017413;28;1253;-81
2022/10/28 11:20:24;;;;;;;;;;;;;;;20.98;32.94;99190.56;5017755;28;1332;-82
2022/10/28 11:23:13;;;;;;;;;;;;;;;21.39;33.00;99184.28;5034410;28;878;-81
2022/10/28 11:25:43;;;;;;;;;;;;;;;21.60;33.32;99191.81;5054949;28;997;-81
2022/10/28 11:28:26;;;;;;;;;;;;;;;21.63;33.53;99185.31;5046205;28;1245;-81
2022/10/28 11:31:02;;;;;;;;;;;;;;;21.17;34.03;99180.75;5080086;28;1224;-81
2022/10/28 11:33:30;;;;;;;;;;;;;;;21.19;33.52;99189.66;5061629;28;1205;-81
2022/10/28 11:36:02;;;;;;;;;;;;;;;21.35;32.86;99185.53;5064208;28;1272;-81
2022/10/28 11:38:32;;;;;;;;;;;;;;;21.29;32.95;99188.75;5074563;28;1273;-80
2022/10/28 11:41:10;;;;;;;;;;;;;;;21.07;33.27;99187.28;5059241;28;1205;-81
2022/10/28 11:43:47;;;;;;;;;;;;;;;21.28;33.11;99187.16;5075830;28;1306;-81
2022/10/28 11:46:16;;;;;;;;;;;;;;;21.37;32.70;99188.75;5076829;28;833;-81
2022/10/28 11:49:11;;;;;;;;;;;;;;;21.20;33.01;99179.16;5042762;28;1979;-81
2022/10/28 11:51:49;;;;;;;;;;;;;;;21.17;33.03;99180.75;5053762;28;1055;-81
2022/10/28 11:54:26;;;;;;;;;;;;;;;21.01;33.12;99171.97;5021529;28;1110;-82
2022/10/28 11:56:53;;;;;;;;;;;;;;;21.22;32.66;99177.50;5037908;28;1008;-82
2022/10/28 11:59:37;;;;;;;;;;;;;;;21.13;32.70;99167.84;5054527;28;754;-82
2022/10/28 12:02:14;;;;;;;;;;;;;;;21.22;32.75;99171.03;5037942;28;1123;-82
2022/10/28 12:04:47;;;;;;;;;;;;;;;21.42;32.32;99168.50;5021957;28;1139;-82
2022/10/28 12:07:13;;;;;;;;;;;;;;;21.24;32.34;99169.41;5038317;28;826;-82
2022/10/28 12:09:56;;;;;;;;;;;;;;;21.21;32.43;99170.22;5037993;28;1983;-82
2022/10/28 12:12:25;;;;;;;;;;;;;;;21.26;32.18;99166.97;5021891;28;1214;-82
2022/10/28 12:14:51;;;;;;;;;;;;;;;21.09;32.52;99165.06;5054652;28;884;-82
2022/10/28 12:17:22;;;;;;;;;;;;;;;21.02;32.48;99163.06;5037805;28;699;-82
2022/10/28 12:19:52;;;;;;;;;;;;;;;21.37;32.00;99166.13;5054508;28;750;-82
2022/10/28 12:22:32;;;;;;;;;;;;;;;21.09;32.45;99167.88;5057437;28;928;-82
2022/10/28 12:24:58;;;;;;;;;;;;;;;21.13;32.57;99168.66;5040948;28;1088;-81
2022/10/28 12:27:28;;;;;;;;;;;;;;;21.06;32.46;99168.72;5063626;28;985;-82
2022/10/28 12:30:02;;;;;;;;;;;;;;;21.08;32.29;99163.44;5053857;28;1910;-82
2022/10/28 12:32:28;;;;;;;;;;;;;;;21.11;32.25;99165.44;5070771;28;790;-82
2022/10/28 12:35:12;;;;;;;;;;;;;;;21.05;32.80;99167.91;5053794;28;1327;-82
2022/10/28 12:37:46;;;;;;;;;;;;;;;21.57;32.80;99153.00;5020856;28;1149;-82
2022/10/28 12:40:14;;;;;;;;;;;;;;;21.74;32.94;99149.22;5037450;28;820;-82
2022/10/28 12:42:44;;;;;;;;;;;;;;;21.38;33.59;99154.38;5037559;28;820;-82
2022/10/28 12:45:11;;;;;;;;;;;;;;;21.27;33.43;99157.25;5054171;28;1076;-82
2022/10/28 12:47:36;;;;;;;;;;;;;;;21.19;33.49;99152.88;5070746;28;1215;-82
2022/10/28 12:50:05;;;;;;;;;;;;;;;21.09;33.22;99156.56;5021207;28;1906;-82
2022/10/28 12:52:33;;;;;;;;;;;;;;;21.19;32.84;99155.69;5030562;28;841;-82
2022/10/28 12:55:00;;;;;;;;;;;;;;;21.26;33.01;99152.81;5030884;28;973;-81
2022/10/28 12:57:26;;;;;;;;;;;;;;;21.35;32.51;99148.72;5047724;28;1197;-81
2022/10/28 12:59:54;;;;;;;;;;;;;;;21.16;32.82;99145.19;5033413;28;1275;-81
2022/10/28 13:02:24;;;;;;;;;;;;;;;21.30;32.63;99145.13;5037268;28;1235;-81
2022/10/28 13:04:49;;;;;;;;;;;;;;;21.11;32.94;99145.63;5071120;28;1211;-81
2022/10/28 13:07:20;;;;;;;;;;;;;;;21.13;32.78;99129.03;5053656;28;885;-81
2022/10/28 13:09:54;;;;;;;;;;;;;;;21.05;32.88;99144.47;5053531;28;1906;-81
2022/10/28 13:12:23;;;;;;;;;;;;;;;21.12;32.67;99137.94;5053318;28;834;-82
2022/10/28 13:15:01;;;;;;;;;;;;;;;20.96;32.82;99142.06;5054258;28;1197;-81
2022/10/28 13:17:29;;;;;;;;;;;;;;;21.05;32.77;99136.78;5074042;28;1173;-81
2022/10/28 13:20:00;;;;;;;;;;;;;;;20.99;32.81;99137.63;5073902;28;1149;-82
2022/10/28 13:22:28;;;;;;;;;;;;;;;20.90;33.00;99134.44;5074162;28;998;-82
2022/10/28 13:25:12;;;;;;;;;;;;;;;21.29;33.47;99129.31;5057267;28;837;-83
2022/10/28 13:27:37;;;;;;;;;;;;;;;21.67;33.08;99135.13;5057323;28;964;-82
2022/10/28 13:30:05;;;;;;;;;;;;;;;21.62;33.71;99138.41;5053767;28;1906;-82
2022/10/28 13:32:33;;;;;;;;;;;;;;;21.32;33.26;99131.34;5036880;28;1173;-81
2022/10/28 13:34:59;;;;;;;;;;;;;;;21.24;33.43;99138.28;5036909;28;838;-83
2022/10/28 13:37:25;;;;;;;;;;;;;;;21.40;32.97;99134.13;5040039;28;1119;-81